createdAt,value
2018-12-25T01:39:28.515Z,26.00
2018-12-25T01:40:07.708Z,26.10
2018-12-25T01:40:47.330Z,26.20
2018-12-25T01:41:25.983Z,26.20
2018-12-25T01:42:05.533Z,26.20
2018-12-25T01:42:44.599Z,26.30
2018-12-25T01:43:24.155Z,26.30
2018-12-25T01:44:03.046Z,26.30
2018-12-25T01:44:41.993Z,26.20
2018-12-25T01:45:21.386Z,26.20
2018-12-25T01:46:00.054Z,26.20
2018-12-25T01:46:39.280Z,26.20
2018-12-25T01:47:18.757Z,26.20
2018-12-25T01:47:57.938Z,26.10
2018-12-25T01:48:37.240Z,26.10
2018-12-25T01:49:16.328Z,26.10
2018-12-25T01:49:56.736Z,26.00
2018-12-25T01:50:36.177Z,26.00
2018-12-25T01:51:15.238Z,26.00
2018-12-25T01:51:53.949Z,25.90
2018-12-25T01:52:33.406Z,25.90
2018-12-25T01:53:12.014Z,25.90
2018-12-25T01:53:50.855Z,26.00
2018-12-25T01:54:29.582Z,26.00
2018-12-25T01:55:09.147Z,26.00
2018-12-25T01:55:48.100Z,26.10
2018-12-25T01:56:26.711Z,26.10
2018-12-25T01:57:05.896Z,26.20
2018-12-25T01:57:45.239Z,26.20
2018-12-25T01:58:26.992Z,26.30
2018-12-25T01:59:05.736Z,26.30
2018-12-25T01:59:44.541Z,26.40
2018-12-25T02:00:23.178Z,26.40
2018-12-25T02:01:01.899Z,26.40
2018-12-25T02:01:41.098Z,26.40
2018-12-25T02:02:20.441Z,26.50
2018-12-25T02:02:59.805Z,26.50
2018-12-25T02:03:38.933Z,26.60
2018-12-25T02:04:18.268Z,26.60
2018-12-25T02:04:56.986Z,26.60
2018-12-25T02:05:36.235Z,26.60
2018-12-25T02:06:15.909Z,26.60
2018-12-25T02:06:55.554Z,26.70
2018-12-25T02:07:34.217Z,26.70
2018-12-25T02:08:12.929Z,26.70
2018-12-25T02:08:51.558Z,26.70
2018-12-25T02:09:30.502Z,26.80
2018-12-25T02:10:09.306Z,26.80
2018-12-25T02:10:48.535Z,26.80
2018-12-25T02:11:27.865Z,26.80
2018-12-25T02:12:07.051Z,26.80
2018-12-25T02:12:45.829Z,26.80
2018-12-25T02:13:24.519Z,26.90
2018-12-25T02:14:03.415Z,26.90
2018-12-25T02:14:42.153Z,26.90
2018-12-25T02:15:20.983Z,26.90
2018-12-25T02:16:00.307Z,26.90
2018-12-25T02:16:39.151Z,26.90
2018-12-25T02:17:19.109Z,26.90
2018-12-25T02:17:58.171Z,27.00
2018-12-25T02:18:37.715Z,27.00
2018-12-25T02:19:16.397Z,27.00
2018-12-25T02:19:55.568Z,27.00
2018-12-25T02:20:34.265Z,27.00
2018-12-25T02:21:12.999Z,27.00
2018-12-25T02:21:51.976Z,27.00
2018-12-25T02:22:31.077Z,27.00
2018-12-25T02:23:10.432Z,27.00
2018-12-25T02:23:49.658Z,27.00
2018-12-25T02:24:32.099Z,27.10
2018-12-25T02:25:11.454Z,27.10
2018-12-25T02:25:50.355Z,27.10
2018-12-25T02:26:29.077Z,27.10
2018-12-25T02:27:08.417Z,27.10
2018-12-25T02:27:48.947Z,27.10
2018-12-25T02:28:28.172Z,27.10
2018-12-25T02:29:07.426Z,27.10
2018-12-25T02:29:46.030Z,27.20
2018-12-25T02:30:24.729Z,27.20
2018-12-25T02:31:03.421Z,27.20
2018-12-25T02:31:42.645Z,27.20
2018-12-25T02:32:21.952Z,27.20
2018-12-25T02:33:01.193Z,27.20
2018-12-25T02:33:40.585Z,27.20
2018-12-25T02:34:19.906Z,27.20
2018-12-25T02:34:58.754Z,27.20
2018-12-25T02:35:37.933Z,27.20
2018-12-25T02:36:16.554Z,27.30
2018-12-25T02:36:55.310Z,27.30
2018-12-25T02:37:33.963Z,27.30
2018-12-25T02:38:12.714Z,27.30
2018-12-25T02:38:51.836Z,27.30
2018-12-25T02:39:31.170Z,27.30
2018-12-25T02:40:10.323Z,27.30
2018-12-25T02:40:48.954Z,27.30
2018-12-25T02:41:27.743Z,27.30
2018-12-25T02:42:06.772Z,27.30
2018-12-25T02:42:46.215Z,27.40
2018-12-25T02:43:25.723Z,27.40
2018-12-25T02:44:04.688Z,27.40
2018-12-25T02:44:43.774Z,27.40
2018-12-25T02:45:22.873Z,27.40
2018-12-25T02:46:01.775Z,27.40
2018-12-25T02:46:41.324Z,27.40
2018-12-25T02:47:20.095Z,27.40
2018-12-25T02:47:58.779Z,27.40
2018-12-25T02:48:37.450Z,27.40
2018-12-25T02:49:18.326Z,27.40
2018-12-25T02:49:56.210Z,27.40
2018-12-25T02:50:34.826Z,27.50
2018-12-25T02:51:13.863Z,27.40
2018-12-25T02:51:52.994Z,27.40
2018-12-25T02:52:32.350Z,27.50
2018-12-25T02:53:11.884Z,27.50
2018-12-25T02:53:51.051Z,27.50
2018-12-25T02:54:30.379Z,27.50
2018-12-25T02:55:09.147Z,27.50
2018-12-25T02:55:47.858Z,27.50
2018-12-25T02:56:26.588Z,27.50
2018-12-25T02:57:05.457Z,27.50
2018-12-25T02:57:44.689Z,27.50
2018-12-25T02:58:23.291Z,27.50
2018-12-25T02:59:01.985Z,27.60
2018-12-25T02:59:41.427Z,27.60
2018-12-25T03:00:20.941Z,27.60
2018-12-25T03:00:59.590Z,27.60
2018-12-25T03:01:38.294Z,27.60
2018-12-25T03:02:16.990Z,27.60
2018-12-25T03:02:55.714Z,27.60
2018-12-25T03:03:38.976Z,27.60
2018-12-25T03:04:17.758Z,27.60
2018-12-25T03:04:57.372Z,27.60
2018-12-25T03:05:36.359Z,27.60
2018-12-25T03:06:15.103Z,27.70
2018-12-25T03:06:56.030Z,27.70
2018-12-25T03:07:35.300Z,27.70
2018-12-25T03:08:14.698Z,27.70
2018-12-25T03:08:54.109Z,27.70
2018-12-25T03:09:33.313Z,27.70
2018-12-25T03:10:12.558Z,27.70
2018-12-25T03:10:51.849Z,27.70
2018-12-25T03:11:30.485Z,27.70
2018-12-25T03:12:09.266Z,27.70
2018-12-25T03:12:47.886Z,27.70
2018-12-25T03:13:26.533Z,27.80
2018-12-25T03:14:05.753Z,27.80
2018-12-25T03:14:45.247Z,27.70
2018-12-25T03:15:24.447Z,27.80
2018-12-25T03:16:03.111Z,27.80
2018-12-25T03:16:42.646Z,27.80
2018-12-25T03:17:21.316Z,27.80
2018-12-25T03:17:59.889Z,27.80
2018-12-25T03:18:38.627Z,27.80
2018-12-25T03:19:17.325Z,27.80
2018-12-25T03:19:59.950Z,27.80
2018-12-25T03:20:36.866Z,27.90
2018-12-25T03:21:16.055Z,27.80
2018-12-25T03:21:55.578Z,27.90
2018-12-25T03:22:34.730Z,27.90
2018-12-25T03:23:13.810Z,27.90
2018-12-25T03:23:52.438Z,27.90
2018-12-25T03:24:31.856Z,27.90
2018-12-25T03:25:10.623Z,27.90
2018-12-25T03:25:49.339Z,27.90
2018-12-25T03:26:28.023Z,27.90
2018-12-25T03:27:07.085Z,28.00
2018-12-25T03:27:46.162Z,27.90
2018-12-25T03:28:25.087Z,28.00
2018-12-25T03:29:04.566Z,28.00
2018-12-25T03:29:43.268Z,28.00
2018-12-25T03:30:22.401Z,28.00
2018-12-25T03:31:01.200Z,28.00
2018-12-25T03:31:39.959Z,28.00
2018-12-25T03:32:18.656Z,28.00
2018-12-25T03:32:57.711Z,28.00
2018-12-25T03:33:36.668Z,28.00
2018-12-25T03:34:18.874Z,28.00
2018-12-25T03:35:01.312Z,28.00
2018-12-25T03:35:40.088Z,28.00
2018-12-25T03:36:19.332Z,28.00
2018-12-25T03:36:58.366Z,28.00
2018-12-25T03:37:37.597Z,28.10
2018-12-25T03:38:16.775Z,28.10
2018-12-25T03:38:56.028Z,28.10
2018-12-25T03:39:35.471Z,28.10
2018-12-25T03:40:15.023Z,28.10
2018-12-25T03:40:54.530Z,28.20
2018-12-25T03:41:33.903Z,28.20
2018-12-25T03:42:12.977Z,28.20
2018-12-25T03:42:51.769Z,28.20
2018-12-25T03:43:30.489Z,28.20
2018-12-25T03:44:09.187Z,28.20
2018-12-25T03:44:50.710Z,28.20
2018-12-25T03:45:29.363Z,28.20
2018-12-25T03:46:08.070Z,28.20
2018-12-25T03:46:46.979Z,28.20
2018-12-25T03:47:26.076Z,28.20
2018-12-25T03:48:05.392Z,28.30
2018-12-25T03:48:44.642Z,28.30
2018-12-25T03:49:23.933Z,28.30
2018-12-25T03:50:10.664Z,28.30
2018-12-25T03:50:43.445Z,28.30
2018-12-25T03:51:22.242Z,28.30
2018-12-25T03:52:00.989Z,28.30
2018-12-25T03:52:39.956Z,28.30
2018-12-25T03:53:18.573Z,28.30
2018-12-25T03:53:57.233Z,28.30
2018-12-25T03:54:36.163Z,28.30
2018-12-25T03:55:15.870Z,28.30
2018-12-25T03:55:55.537Z,28.30
2018-12-25T03:56:34.616Z,28.30
2018-12-25T03:57:13.232Z,28.40
2018-12-25T03:57:51.939Z,28.30
2018-12-25T03:58:30.635Z,28.40
2018-12-25T03:59:09.810Z,28.40
2018-12-25T03:59:48.676Z,28.40
2018-12-25T04:00:29.178Z,28.40
2018-12-25T04:01:08.023Z,28.40
2018-12-25T04:01:47.576Z,28.40
2018-12-25T04:02:29.364Z,28.40
2018-12-25T04:03:08.796Z,28.40
2018-12-25T04:03:50.790Z,28.40
2018-12-25T04:04:30.005Z,28.40
2018-12-25T04:05:09.321Z,28.40
2018-12-25T04:05:48.553Z,28.50
2018-12-25T04:06:27.682Z,28.50
2018-12-25T04:07:06.975Z,28.50
2018-12-25T04:07:46.269Z,28.50
2018-12-25T04:08:24.893Z,28.50
2018-12-25T04:09:03.578Z,28.50
2018-12-25T04:09:42.318Z,28.50
2018-12-25T04:10:21.234Z,28.50
2018-12-25T04:11:00.198Z,28.50
2018-12-25T04:11:39.454Z,28.50
2018-12-25T04:12:18.474Z,28.50
2018-12-25T04:12:57.413Z,28.50
2018-12-25T04:13:36.758Z,28.50
2018-12-25T04:14:15.483Z,28.50
2018-12-25T04:14:54.883Z,28.50
2018-12-25T04:15:33.545Z,28.50
2018-12-25T04:16:12.155Z,28.50
2018-12-25T04:16:50.977Z,28.60
2018-12-25T04:17:32.888Z,28.50
2018-12-25T04:18:11.592Z,28.60
2018-12-25T04:18:50.889Z,28.60
2018-12-25T04:19:30.221Z,28.60
2018-12-25T04:20:08.872Z,28.60
2018-12-25T04:20:48.263Z,28.60
2018-12-25T04:21:27.514Z,28.60
2018-12-25T04:22:06.844Z,28.60
2018-12-25T04:22:45.575Z,28.60
2018-12-25T04:23:24.334Z,28.60
2018-12-25T04:24:03.095Z,28.60
2018-12-25T04:24:43.634Z,28.60
2018-12-25T04:25:22.893Z,28.60
2018-12-25T04:26:01.556Z,28.60
2018-12-25T04:26:40.703Z,28.70
2018-12-25T04:27:20.223Z,28.70
2018-12-25T04:27:59.562Z,28.70
2018-12-25T04:28:39.186Z,28.70
2018-12-25T04:29:18.027Z,28.70
2018-12-25T04:29:56.740Z,28.70
2018-12-25T04:30:35.806Z,28.70
2018-12-25T04:31:18.076Z,28.70
2018-12-25T04:31:56.972Z,28.70
2018-12-25T04:32:35.842Z,28.70
2018-12-25T04:33:14.434Z,28.70
2018-12-25T04:33:53.272Z,28.80
2018-12-25T04:34:33.702Z,28.70
2018-12-25T04:35:12.575Z,28.80
2018-12-25T04:35:51.477Z,28.80
2018-12-25T04:36:30.506Z,28.80
2018-12-25T04:37:09.697Z,28.80
2018-12-25T04:37:48.937Z,28.80
2018-12-25T04:38:27.712Z,28.80
2018-12-25T04:39:08.281Z,28.80
2018-12-25T04:39:47.772Z,28.80
2018-12-25T04:40:27.166Z,28.80
2018-12-25T04:41:06.666Z,28.80
2018-12-25T04:41:45.550Z,28.90
2018-12-25T04:42:24.479Z,28.90
2018-12-25T04:43:03.297Z,28.90
2018-12-25T04:43:42.416Z,28.90
2018-12-25T04:44:21.762Z,28.90
2018-12-25T04:45:00.789Z,28.90
2018-12-25T04:45:40.151Z,28.90
2018-12-25T04:46:19.368Z,28.90
2018-12-25T04:46:58.451Z,28.90
2018-12-25T04:47:37.194Z,29.00
2018-12-25T04:48:15.821Z,28.90
2018-12-25T04:48:54.511Z,29.00
2018-12-25T04:49:33.287Z,29.00
2018-12-25T04:50:12.452Z,29.00
2018-12-25T04:50:51.493Z,29.00
2018-12-25T04:51:30.202Z,29.00
2018-12-25T04:52:09.590Z,29.00
2018-12-25T04:52:48.339Z,29.00
2018-12-25T04:53:27.811Z,29.00
2018-12-25T04:54:07.053Z,29.00
2018-12-25T04:54:45.763Z,29.00
2018-12-25T04:55:24.768Z,29.00
2018-12-25T04:56:03.767Z,29.00
2018-12-25T04:56:43.206Z,29.00
2018-12-25T04:57:22.426Z,29.00
2018-12-25T04:58:01.848Z,29.00
2018-12-25T04:58:41.200Z,29.00
2018-12-25T04:59:20.533Z,29.00
2018-12-25T04:59:59.218Z,29.10
2018-12-25T05:00:38.171Z,29.10
2018-12-25T05:01:17.009Z,29.10
2018-12-25T05:01:55.767Z,29.10
2018-12-25T05:02:34.796Z,29.10
2018-12-25T05:03:13.806Z,29.10
2018-12-25T05:03:52.856Z,29.10
2018-12-25T05:04:31.599Z,29.10
2018-12-25T05:05:10.285Z,29.10
2018-12-25T05:05:48.990Z,29.10
2018-12-25T05:06:28.552Z,29.10
2018-12-25T05:07:07.349Z,29.10
2018-12-25T05:07:46.130Z,29.20
2018-12-25T05:08:25.250Z,29.20
2018-12-25T05:09:04.795Z,29.20
2018-12-25T05:09:43.546Z,29.20
2018-12-25T05:10:22.709Z,29.20
2018-12-25T05:11:01.288Z,29.20
2018-12-25T05:11:40.568Z,29.20
2018-12-25T05:12:19.386Z,29.20
2018-12-25T05:12:58.462Z,29.20
2018-12-25T05:13:37.367Z,29.20
2018-12-25T05:14:16.720Z,29.20
2018-12-25T05:14:55.802Z,29.20
2018-12-25T05:15:34.947Z,29.30
2018-12-25T05:16:18.182Z,29.30
2018-12-25T05:16:56.839Z,29.30
2018-12-25T05:17:35.538Z,29.30
2018-12-25T05:18:15.140Z,29.30
2018-12-25T05:18:54.553Z,29.30
2018-12-25T05:19:33.817Z,29.30
2018-12-25T05:20:13.214Z,29.30
2018-12-25T05:20:53.554Z,29.30
2018-12-25T05:21:33.166Z,29.30
2018-12-25T05:22:12.381Z,29.30
2018-12-25T05:22:51.081Z,29.30
2018-12-25T05:23:29.651Z,29.30
2018-12-25T05:24:08.377Z,29.40
2018-12-25T05:24:47.051Z,29.40
2018-12-25T05:25:26.053Z,29.40
2018-12-25T05:26:04.989Z,29.40
2018-12-25T05:26:45.240Z,29.40
2018-12-25T05:27:24.243Z,29.40
2018-12-25T05:28:03.378Z,29.40
2018-12-25T05:28:42.026Z,29.40
2018-12-25T05:29:20.731Z,29.40
2018-12-25T05:29:59.439Z,29.40
2018-12-25T05:30:38.136Z,29.40
2018-12-25T05:31:16.804Z,29.40
2018-12-25T05:31:56.177Z,29.50
2018-12-25T05:32:35.342Z,29.50
2018-12-25T05:33:14.051Z,29.50
2018-12-25T05:33:52.994Z,29.50
2018-12-25T05:34:32.395Z,29.50
2018-12-25T05:35:11.147Z,29.50
2018-12-25T05:35:50.190Z,29.50
2018-12-25T05:36:28.870Z,29.50
2018-12-25T05:37:07.520Z,29.50
2018-12-25T05:37:46.575Z,29.50
2018-12-25T05:38:25.908Z,29.50
2018-12-25T05:39:05.545Z,29.50
2018-12-25T05:39:45.011Z,29.50
2018-12-25T05:40:24.800Z,29.50
2018-12-25T05:41:03.509Z,29.60
2018-12-25T05:41:42.094Z,29.60
2018-12-25T05:42:20.775Z,29.60
2018-12-25T05:42:59.451Z,29.60
2018-12-25T05:43:38.148Z,29.60
2018-12-25T05:44:17.320Z,29.60
2018-12-25T05:44:56.624Z,29.60
2018-12-25T05:45:35.304Z,29.60
2018-12-25T05:46:14.435Z,29.60
2018-12-25T05:46:53.901Z,29.60
2018-12-25T05:47:33.403Z,29.60
2018-12-25T05:48:12.417Z,29.60
2018-12-25T05:48:51.615Z,29.60
2018-12-25T05:49:32.054Z,29.60
2018-12-25T05:50:10.827Z,29.60
2018-12-25T05:50:49.631Z,29.70
2018-12-25T05:51:28.619Z,29.70
2018-12-25T05:52:07.630Z,29.70
2018-12-25T05:52:46.734Z,29.70
2018-12-25T05:53:26.150Z,29.70
2018-12-25T05:54:05.481Z,29.70
2018-12-25T05:54:44.809Z,29.70
2018-12-25T05:55:24.055Z,29.70
2018-12-25T05:56:02.758Z,29.70
2018-12-25T05:56:43.154Z,29.70
2018-12-25T05:57:21.902Z,29.70
2018-12-25T05:58:01.084Z,29.70
2018-12-25T05:58:39.914Z,29.70
2018-12-25T05:59:18.874Z,29.70
2018-12-25T05:59:58.138Z,29.70
2018-12-25T06:00:37.143Z,29.70
2018-12-25T06:01:16.310Z,29.70
2018-12-25T06:01:55.717Z,29.80
2018-12-25T06:02:34.794Z,29.80
2018-12-25T06:03:13.417Z,29.80
2018-12-25T06:03:52.130Z,29.80
2018-12-25T06:04:30.733Z,29.80
2018-12-25T06:05:09.607Z,29.80
2018-12-25T06:05:48.824Z,29.80
2018-12-25T06:06:27.572Z,29.80
2018-12-25T06:07:06.822Z,29.80
2018-12-25T06:07:46.133Z,29.80
2018-12-25T06:08:25.272Z,29.80
2018-12-25T06:09:05.383Z,29.80
2018-12-25T06:09:44.638Z,29.80
2018-12-25T06:10:23.278Z,29.80
2018-12-25T06:11:01.989Z,29.80
2018-12-25T06:11:40.708Z,29.90
2018-12-25T06:12:19.954Z,29.90
2018-12-25T06:12:59.164Z,29.90
2018-12-25T06:13:38.582Z,29.90
2018-12-25T06:14:17.221Z,29.90
2018-12-25T06:14:56.431Z,29.90
2018-12-25T06:15:37.044Z,29.90
2018-12-25T06:16:16.395Z,29.90
2018-12-25T06:16:55.070Z,29.90
2018-12-25T06:17:33.867Z,29.90
2018-12-25T06:18:12.648Z,29.90
2018-12-25T06:18:51.557Z,29.90
2018-12-25T06:19:30.538Z,29.90
2018-12-25T06:20:09.699Z,29.90
2018-12-25T06:20:55.093Z,29.90
2018-12-25T06:21:29.626Z,30.00
2018-12-25T06:22:08.848Z,30.00
2018-12-25T06:22:47.786Z,30.00
2018-12-25T06:23:27.047Z,30.00
2018-12-25T06:24:11.449Z,30.00
2018-12-25T06:24:50.773Z,30.00
2018-12-25T06:25:30.292Z,30.00
2018-12-25T06:26:13.563Z,30.00
2018-12-25T06:26:52.556Z,30.00
2018-12-25T06:27:34.247Z,30.00
2018-12-25T06:28:12.952Z,30.00
2018-12-25T06:28:52.066Z,30.00
2018-12-25T06:29:31.333Z,30.00
2018-12-25T06:30:10.680Z,30.00
2018-12-25T06:30:50.766Z,30.00
2018-12-25T06:31:29.437Z,30.00
2018-12-25T06:32:08.632Z,30.00
2018-12-25T06:32:47.884Z,30.00
2018-12-25T06:33:26.953Z,30.00
2018-12-25T06:34:05.734Z,30.00
2018-12-25T06:34:44.423Z,30.10
2018-12-25T06:35:23.777Z,30.10
2018-12-25T06:36:02.443Z,30.10
2018-12-25T06:36:41.638Z,30.10
2018-12-25T06:37:20.921Z,30.10
2018-12-25T06:38:00.369Z,30.10
2018-12-25T06:38:39.609Z,30.10
2018-12-25T06:39:18.830Z,30.10
2018-12-25T06:39:58.121Z,30.10
2018-12-25T06:40:37.282Z,30.10
2018-12-25T06:41:16.556Z,30.10
2018-12-25T06:41:55.268Z,30.10
2018-12-25T06:42:33.865Z,30.10
2018-12-25T06:43:12.791Z,30.10
2018-12-25T06:43:52.194Z,30.10
2018-12-25T06:44:31.386Z,30.10
2018-12-25T06:45:10.565Z,30.10
2018-12-25T06:45:49.902Z,30.10
2018-12-25T06:46:28.860Z,30.10
2018-12-25T06:47:07.528Z,30.20
2018-12-25T06:47:46.515Z,30.10
2018-12-25T06:48:25.233Z,30.20
2018-12-25T06:49:03.916Z,30.20
2018-12-25T06:49:43.040Z,30.20
2018-12-25T06:50:22.142Z,30.20
2018-12-25T06:51:03.906Z,30.20
2018-12-25T06:51:42.152Z,30.20
2018-12-25T06:52:21.090Z,30.20
2018-12-25T06:53:00.127Z,30.20
2018-12-25T06:53:41.208Z,30.20
2018-12-25T06:54:20.196Z,30.20
2018-12-25T06:54:58.906Z,30.20
2018-12-25T06:55:38.351Z,30.20
2018-12-25T06:56:17.408Z,30.20
2018-12-25T06:56:56.078Z,30.20
2018-12-25T06:57:34.902Z,30.30
2018-12-25T06:58:14.065Z,30.20
2018-12-25T06:58:53.039Z,30.30
2018-12-25T06:59:32.130Z,30.20
2018-12-25T07:00:11.439Z,30.30
2018-12-25T07:00:50.260Z,30.20
2018-12-25T07:01:29.542Z,30.30
2018-12-25T07:02:08.193Z,30.20
2018-12-25T07:02:46.953Z,30.30
2018-12-25T07:03:25.586Z,30.30
2018-12-25T07:04:04.253Z,30.30
2018-12-25T07:04:43.318Z,30.30
2018-12-25T07:05:22.393Z,30.30
2018-12-25T07:06:01.182Z,30.30
2018-12-25T07:06:42.265Z,30.30
2018-12-25T07:07:26.031Z,30.30
2018-12-25T07:08:05.069Z,30.30
2018-12-25T07:08:44.121Z,30.30
2018-12-25T07:09:22.986Z,30.30
2018-12-25T07:10:02.187Z,30.30
2018-12-25T07:10:40.771Z,30.30
2018-12-25T07:11:20.103Z,30.30
2018-12-25T07:11:59.059Z,30.30
2018-12-25T07:12:37.699Z,30.30
2018-12-25T07:13:16.339Z,30.40
2018-12-25T07:13:55.457Z,30.40
2018-12-25T07:14:34.175Z,30.40
2018-12-25T07:15:14.084Z,30.40
2018-12-25T07:15:53.909Z,30.40
2018-12-25T07:16:32.794Z,30.40
2018-12-25T07:17:12.224Z,30.40
2018-12-25T07:17:51.407Z,30.40
2018-12-25T07:18:30.194Z,30.40
2018-12-25T07:19:09.657Z,30.40
2018-12-25T07:19:48.412Z,30.40
2018-12-25T07:20:28.883Z,30.40
2018-12-25T07:21:12.127Z,30.40
2018-12-25T07:21:47.130Z,30.40
2018-12-25T07:22:25.927Z,30.40
2018-12-25T07:23:06.096Z,30.40
2018-12-25T07:23:44.895Z,30.40
2018-12-25T07:24:24.775Z,30.40
2018-12-25T07:25:04.038Z,30.40
2018-12-25T07:25:42.675Z,30.50
2018-12-25T07:26:22.227Z,30.40
2018-12-25T07:27:01.519Z,30.50
2018-12-25T07:27:40.200Z,30.50
2018-12-25T07:28:18.892Z,30.50
2018-12-25T07:28:58.114Z,30.50
2018-12-25T07:29:36.917Z,30.50
2018-12-25T07:30:15.630Z,30.50
2018-12-25T07:30:55.658Z,30.40
2018-12-25T07:31:34.725Z,30.40
2018-12-25T07:32:14.082Z,30.50
2018-12-25T07:32:53.216Z,30.50
2018-12-25T07:33:32.485Z,30.50
2018-12-25T07:34:11.632Z,30.50
2018-12-25T07:34:51.339Z,30.50
2018-12-25T07:35:33.426Z,30.50
2018-12-25T07:36:12.434Z,30.50
2018-12-25T07:36:52.138Z,30.40
2018-12-25T07:37:30.912Z,30.40
2018-12-25T07:38:09.544Z,30.40
2018-12-25T07:38:48.272Z,30.30
2018-12-25T07:39:27.182Z,30.20
2018-12-25T07:40:06.442Z,30.20
2018-12-25T07:40:45.790Z,30.10
2018-12-25T07:41:24.507Z,30.10
2018-12-25T07:42:04.153Z,30.00
2018-12-25T07:42:43.461Z,29.90
2018-12-25T07:43:22.878Z,29.90
2018-12-25T07:44:03.031Z,29.80
2018-12-25T07:44:42.477Z,29.70
2018-12-25T07:45:21.861Z,29.70
2018-12-25T07:46:00.582Z,29.70
2018-12-25T07:46:40.157Z,29.70
2018-12-25T07:47:19.030Z,29.60
2018-12-25T07:47:58.293Z,29.60
2018-12-25T07:48:39.481Z,29.60
2018-12-25T07:49:18.173Z,29.50
2018-12-25T07:49:57.204Z,29.50
2018-12-25T07:50:36.090Z,29.50
2018-12-25T07:51:20.912Z,29.50
2018-12-25T07:51:57.983Z,29.50
2018-12-25T07:52:37.181Z,29.40
2018-12-25T07:53:16.040Z,29.40
2018-12-25T07:53:55.673Z,29.40
2018-12-25T07:54:35.431Z,29.40
2018-12-25T07:55:14.764Z,29.40
2018-12-25T07:55:53.755Z,29.40
2018-12-25T07:56:32.941Z,29.40
2018-12-25T07:57:11.604Z,29.40
2018-12-25T07:57:53.067Z,29.40
2018-12-25T07:58:31.745Z,29.40
2018-12-25T07:59:13.630Z,29.50
2018-12-25T07:59:53.273Z,29.50
2018-12-25T08:00:32.614Z,29.50
2018-12-25T08:01:11.206Z,29.60
2018-12-25T08:01:50.018Z,29.60
2018-12-25T08:02:28.791Z,29.70
2018-12-25T08:03:07.459Z,29.70
2018-12-25T08:03:46.822Z,29.70
2018-12-25T08:04:26.011Z,29.70
2018-12-25T08:05:05.512Z,29.80
2018-12-25T08:05:44.945Z,29.80
2018-12-25T08:06:23.643Z,29.80
2018-12-25T08:07:02.324Z,29.80
2018-12-25T08:07:41.070Z,29.90
2018-12-25T08:08:20.519Z,29.90
2018-12-25T08:08:59.687Z,29.90
2018-12-25T08:09:38.757Z,29.90
2018-12-25T08:10:18.079Z,30.00
2018-12-25T08:10:57.355Z,30.00
2018-12-25T08:11:36.490Z,30.00
2018-12-25T08:12:16.053Z,30.00
2018-12-25T08:12:55.275Z,30.00
2018-12-25T08:13:33.866Z,30.00
2018-12-25T08:14:12.602Z,30.10
2018-12-25T08:14:51.323Z,30.10
2018-12-25T08:15:30.125Z,30.10
2018-12-25T08:16:09.068Z,30.10
2018-12-25T08:16:48.346Z,30.10
2018-12-25T08:17:27.042Z,30.10
2018-12-25T08:18:06.248Z,30.10
2018-12-25T08:18:45.010Z,30.10
2018-12-25T08:19:23.771Z,30.10
2018-12-25T08:20:02.658Z,30.10
2018-12-25T08:20:41.335Z,30.10
2018-12-25T08:21:20.524Z,30.10
2018-12-25T08:21:59.247Z,30.20
2018-12-25T08:22:38.012Z,30.20
2018-12-25T08:23:17.334Z,30.20
2018-12-25T08:23:56.062Z,30.20
2018-12-25T08:24:34.675Z,30.20
2018-12-25T08:25:13.948Z,30.20
2018-12-25T08:25:53.063Z,30.20
2018-12-25T08:26:31.895Z,30.20
2018-12-25T08:27:10.642Z,30.20
2018-12-25T08:27:49.797Z,30.20
2018-12-25T08:28:28.662Z,30.30
2018-12-25T08:29:07.849Z,30.20
2018-12-25T08:29:47.339Z,30.30
2018-12-25T08:30:26.737Z,30.30
2018-12-25T08:31:08.193Z,30.30
2018-12-25T08:31:46.486Z,30.30
2018-12-25T08:32:25.845Z,30.30
2018-12-25T08:33:04.681Z,30.30
2018-12-25T08:33:43.345Z,30.30
2018-12-25T08:34:22.596Z,30.30
2018-12-25T08:35:01.471Z,30.30
2018-12-25T08:35:40.451Z,30.30
2018-12-25T08:36:19.711Z,30.30
2018-12-25T08:36:59.564Z,30.30
2018-12-25T08:37:39.486Z,30.40
2018-12-25T08:38:18.848Z,30.40
2018-12-25T08:38:57.565Z,30.40
2018-12-25T08:39:36.965Z,30.40
2018-12-25T08:40:15.819Z,30.40
2018-12-25T08:40:54.646Z,30.40
2018-12-25T08:41:33.324Z,30.40
2018-12-25T08:42:12.299Z,30.40
2018-12-25T08:42:51.172Z,30.40
2018-12-25T08:43:30.404Z,30.40
2018-12-25T08:44:09.584Z,30.40
2018-12-25T08:44:48.360Z,30.40
2018-12-25T08:45:27.475Z,30.40
2018-12-25T08:46:06.567Z,30.40
2018-12-25T08:46:45.611Z,30.40
2018-12-25T08:47:24.983Z,30.50
2018-12-25T08:48:03.743Z,30.50
2018-12-25T08:48:42.880Z,30.50
2018-12-25T08:49:22.042Z,30.40
2018-12-25T08:50:01.081Z,30.50
2018-12-25T08:50:39.948Z,30.40
2018-12-25T08:51:19.087Z,30.40
2018-12-25T08:51:58.541Z,30.50
2018-12-25T08:52:37.833Z,30.50
2018-12-25T08:53:16.563Z,30.50
2018-12-25T08:53:55.406Z,30.40
2018-12-25T08:54:34.049Z,30.50
2018-12-25T08:55:13.484Z,30.50
2018-12-25T08:55:52.467Z,30.50
2018-12-25T08:56:36.738Z,30.50
2018-12-25T08:57:15.390Z,30.50
2018-12-25T08:57:54.973Z,30.50
2018-12-25T08:58:33.615Z,30.50
2018-12-25T08:59:12.731Z,30.50
2018-12-25T08:59:55.008Z,30.50
2018-12-25T09:00:34.084Z,30.50
2018-12-25T09:01:13.221Z,30.50
2018-12-25T09:01:52.325Z,30.50
2018-12-25T09:02:31.582Z,30.50
2018-12-25T09:03:11.025Z,30.50
2018-12-25T09:03:50.330Z,30.50
2018-12-25T09:04:28.937Z,30.50
2018-12-25T09:05:08.188Z,30.50
2018-12-25T09:05:46.966Z,30.50
2018-12-25T09:06:25.598Z,30.50
2018-12-25T09:07:04.576Z,30.50
2018-12-25T09:07:43.288Z,30.50
2018-12-25T09:08:22.923Z,30.50
2018-12-25T09:09:02.183Z,30.50
2018-12-25T09:09:41.260Z,30.50
2018-12-25T09:10:20.512Z,30.50
2018-12-25T09:10:59.231Z,30.50
2018-12-25T09:11:38.099Z,30.50
2018-12-25T09:12:20.067Z,30.50
2018-12-25T09:12:58.830Z,30.50
2018-12-25T09:13:38.088Z,30.50
2018-12-25T09:14:18.700Z,30.50
2018-12-25T09:14:57.414Z,30.50
2018-12-25T09:15:36.094Z,30.50
2018-12-25T09:16:14.963Z,30.50
2018-12-25T09:16:54.323Z,30.50
2018-12-25T09:17:35.115Z,30.50
2018-12-25T09:18:16.466Z,30.50
2018-12-25T09:18:55.317Z,30.50
2018-12-25T09:19:35.947Z,30.50
2018-12-25T09:20:14.974Z,30.50
2018-12-25T09:20:54.107Z,30.50
2018-12-25T09:21:33.458Z,30.60
2018-12-25T09:22:12.822Z,30.60
2018-12-25T09:22:52.079Z,30.60
2018-12-25T09:23:31.508Z,30.50
2018-12-25T09:24:10.178Z,30.60
2018-12-25T09:24:48.933Z,30.60
2018-12-25T09:25:27.639Z,30.60
2018-12-25T09:26:06.390Z,30.60
2018-12-25T09:26:45.577Z,30.60
2018-12-25T09:27:24.807Z,30.50
2018-12-25T09:28:04.286Z,30.60
2018-12-25T09:28:42.959Z,30.60
2018-12-25T09:29:22.228Z,30.50
2018-12-25T09:30:01.493Z,30.60
2018-12-25T09:30:40.969Z,30.60
2018-12-25T09:31:19.876Z,30.60
2018-12-25T09:32:01.817Z,30.60
2018-12-25T09:32:40.547Z,30.60
2018-12-25T09:33:19.836Z,30.60
2018-12-25T09:33:58.526Z,30.60
2018-12-25T09:34:37.252Z,30.60
2018-12-25T09:35:16.162Z,30.60
2018-12-25T09:35:55.393Z,30.60
2018-12-25T09:36:34.042Z,30.60
2018-12-25T09:37:12.648Z,30.60
2018-12-25T09:37:51.498Z,30.60
2018-12-25T09:38:31.954Z,30.60
2018-12-25T09:39:12.166Z,30.60
2018-12-25T09:39:50.822Z,30.60
2018-12-25T09:40:29.492Z,30.60
2018-12-25T09:41:08.159Z,30.60
2018-12-25T09:41:46.861Z,30.60
2018-12-25T09:42:25.543Z,30.60
2018-12-25T09:43:04.184Z,30.60
2018-12-25T09:43:42.898Z,30.60
2018-12-25T09:44:21.572Z,30.60
2018-12-25T09:45:00.286Z,30.60
2018-12-25T09:45:39.071Z,30.60
2018-12-25T09:46:17.813Z,30.60
2018-12-25T09:46:56.514Z,30.60
2018-12-25T09:47:35.195Z,30.70
2018-12-25T09:48:14.826Z,30.70
2018-12-25T09:48:56.174Z,30.60
2018-12-25T09:49:34.864Z,30.70
2018-12-25T09:50:13.623Z,30.70
2018-12-25T09:50:52.319Z,30.60
2018-12-25T09:51:31.146Z,30.70
2018-12-25T09:52:09.842Z,30.70
2018-12-25T09:52:48.523Z,30.70
2018-12-25T09:53:28.424Z,30.70
2018-12-25T09:54:07.083Z,30.70
2018-12-25T09:54:45.669Z,30.70
2018-12-25T09:55:24.365Z,30.70
2018-12-25T09:56:03.034Z,30.70
2018-12-25T09:56:41.831Z,30.70
2018-12-25T09:57:20.722Z,30.70
2018-12-25T09:57:59.494Z,30.70
2018-12-25T09:58:38.143Z,30.70
2018-12-25T09:59:17.294Z,30.70
2018-12-25T09:59:56.022Z,30.70
2018-12-25T10:00:34.778Z,30.70
2018-12-25T10:01:13.496Z,30.70
2018-12-25T10:01:52.299Z,30.70
2018-12-25T10:02:30.954Z,30.70
2018-12-25T10:03:09.775Z,30.70
2018-12-25T10:03:48.502Z,30.70